WXM80 ListenWXM80 Stop

You find our weather info also at:

UK Metoffice

WeatherCloud

Weather Underground

Northeastern Weather Network

AWEKAS

Citizen Weather Observer Program (CWOP)

HAMweather, WeatherForYou, PWS Weather


Weather Underground History page Text

Daily Summary for November 30, 2016 Units:  English    Metric   Both
« Previous Day
Next Day »
Daily Weekly Monthly Yearly Custom
  High: Low: Average:
Temperature: 58.0 °F 50.5 °F 52.9 °F
Dew Point: 56.9 °F 49.4 °F 52.2 °F
Humidity: 99 % 95 % 97 %
Wind Speed: 12.2 mph 0.0 mph 3.9 mph
Wind Gust: 17.3 mph - -
Wind:- - SE
Pressure: 29.94 in 29.54 in -
Precipitation: 0.78 in    
Historical Graphs
 
 
Tabular Data for November 30, 2016
Time Temperature Dew Point Pressure Wind Wind Speed Wind Gust Humidity Rainfall Rate (Hourly)
00:00 58.0 °F 56.9 °F 29.85 in SW 2.0 mph 5.8 mph 96 % 0.00 in
00:05 57.9 °F 56.8 °F 29.85 in WSW 0.3 mph 3.5 mph 96 % 0.00 in
00:10 57.7 °F 56.6 °F 29.86 in SW 1.8 mph 3.5 mph 96 % 0.00 in
00:15 57.6 °F 56.5 °F 29.86 in SSW 0.9 mph 3.5 mph 96 % 0.00 in
00:20 57.5 °F 56.4 °F 29.86 in WSW 0.3 mph 4.0 mph 96 % 0.00 in
00:25 57.4 °F 56.3 °F 29.86 in SW 1.1 mph 3.5 mph 96 % 0.00 in
00:30 57.3 °F 56.2 °F 29.86 in WSW 2.3 mph 3.5 mph 96 % 0.00 in
00:35 57.3 °F 56.2 °F 29.86 in WSW 4.1 mph 9.0 mph 96 % 0.00 in
00:40 57.2 °F 56.1 °F 29.87 in SW 3.9 mph 5.0 mph 96 % 0.00 in
00:46 57.1 °F 56.0 °F 29.87 in Calm   2.3 mph 96 % 0.00 in
00:51 57.0 °F 55.9 °F 29.87 in SW 1.1 mph 4.6 mph 96 % 0.00 in
00:56 56.9 °F 55.8 °F 29.87 in WSW 0.6 mph 3.5 mph 96 % 0.00 in
01:01 56.8 °F 55.7 °F 29.87 in West 1.2 mph 3.5 mph 96 % 0.00 in
01:06 56.6 °F 55.5 °F 29.87 in WSW 1.3 mph 3.5 mph 96 % 0.00 in
01:11 56.5 °F 55.4 °F 29.87 in SW 2.9 mph 5.8 mph 96 % 0.00 in
01:16 56.4 °F 55.3 °F 29.87 in WSW 4.1 mph 6.9 mph 96 % 0.00 in
01:21 56.3 °F 55.2 °F 29.87 in WSW 0.3 mph 2.3 mph 96 % 0.00 in
01:26 56.2 °F 55.1 °F 29.87 in SW 0.5 mph 2.0 mph 96 % 0.00 in
01:31 56.0 °F 54.9 °F 29.88 in SW 1.7 mph 3.5 mph 96 % 0.00 in
01:37 55.9 °F 54.8 °F 29.88 in SW 1.2 mph 3.5 mph 96 % 0.00 in
01:42 55.8 °F 54.7 °F 29.88 in SW 0.4 mph 1.2 mph 96 % 0.00 in
01:47 55.7 °F 54.6 °F 29.89 in SW 2.0 mph 3.5 mph 96 % 0.00 in
01:52 55.5 °F 54.4 °F 29.89 in SSW 1.5 mph 3.5 mph 96 % 0.00 in
01:57 55.4 °F 54.3 °F 29.88 in Calm     96 % 0.00 in
02:02 55.3 °F 54.2 °F 29.88 in Calm     96 % 0.00 in
02:07 55.2 °F 54.1 °F 29.88 in WSW 0.4 mph 2.0 mph 96 % 0.00 in
02:12 55.1 °F 54.0 °F 29.89 in SW 0.8 mph 3.5 mph 96 % 0.00 in
02:17 55.1 °F 54.0 °F 29.90 in SW 1.0 mph 3.5 mph 96 % 0.00 in
02:22 55.0 °F 53.9 °F 29.90 in SW 0.9 mph 2.3 mph 96 % 0.00 in
02:28 54.9 °F 53.8 °F 29.89 in WSW 0.6 mph 2.3 mph 96 % 0.00 in
02:33 54.8 °F 53.7 °F 29.90 in WSW 0.3 mph 2.3 mph 96 % 0.00 in
02:38 54.8 °F 53.7 °F 29.90 in WSW 0.2 mph 2.3 mph 96 % 0.00 in
02:43 54.7 °F 53.6 °F 29.90 in SW 2.1 mph 3.5 mph 96 % 0.00 in
02:48 54.7 °F 53.6 °F 29.89 in SW 1.6 mph 3.5 mph 96 % 0.00 in
02:53 54.6 °F 53.5 °F 29.89 in SW 0.4 mph 2.3 mph 96 % 0.00 in
02:58 54.5 °F 53.4 °F 29.88 in SSW 1.4 mph 4.6 mph 96 % 0.00 in
03:03 54.4 °F 53.3 °F 29.89 in WSW 1.4 mph 3.5 mph 96 % 0.00 in
03:08 54.3 °F 53.2 °F 29.90 in SW 2.0 mph 3.5 mph 96 % 0.00 in
03:13 54.1 °F 53.0 °F 29.89 in SW 2.3 mph 3.5 mph 96 % 0.00 in
03:19 53.9 °F 52.8 °F 29.89 in SW 1.7 mph 3.5 mph 96 % 0.00 in
03:24 53.8 °F 52.4 °F 29.90 in SW 1.7 mph 3.5 mph 95 % 0.00 in
03:29 53.6 °F 52.2 °F 29.90 in SW 2.3 mph 4.6 mph 95 % 0.00 in
03:34 53.5 °F 52.4 °F 29.90 in SW 2.2 mph 3.5 mph 96 % 0.00 in
03:39 53.5 °F 52.4 °F 29.90 in WSW 3.9 mph 5.8 mph 96 % 0.00 in
03:44 53.4 °F 52.3 °F 29.89 in WSW 2.0 mph 3.5 mph 96 % 0.00 in
03:49 53.4 °F 52.3 °F 29.89 in WSW 0.3 mph 1.2 mph 96 % 0.00 in
03:54 53.3 °F 52.2 °F 29.90 in WSW 0.5 mph 2.3 mph 96 % 0.00 in
03:59 53.3 °F 52.2 °F 29.90 in WNW 1.8 mph 3.0 mph 96 % 0.00 in
04:04 53.4 °F 52.3 °F 29.89 in WSW 1.7 mph 4.0 mph 96 % 0.00 in
04:10 53.5 °F 52.4 °F 29.90 in WNW 2.3 mph 4.0 mph 96 % 0.00 in
04:15 53.6 °F 52.5 °F 29.90 in West 1.0 mph 3.5 mph 96 % 0.00 in
04:20 53.7 °F 52.9 °F 29.90 in West 3.1 mph 5.8 mph 97 % 0.00 in
04:25 53.7 °F 52.9 °F 29.90 in WSW 2.5 mph 4.6 mph 97 % 0.00 in
04:30 53.9 °F 53.1 °F 29.90 in SW 0.4 mph 3.0 mph 97 % 0.00 in
04:35 54.0 °F 53.2 °F 29.90 in West 1.2 mph 4.6 mph 97 % 0.00 in
04:40 54.0 °F 53.2 °F 29.89 in NW 0.8 mph 2.3 mph 97 % 0.00 in
04:46 54.1 °F 53.3 °F 29.89 in West 1.9 mph 3.5 mph 97 % 0.00 in
04:51 54.1 °F 53.3 °F 29.90 in SW 0.4 mph 2.0 mph 97 % 0.00 in
05:01 54.0 °F 53.2 °F 29.91 in Calm   1.2 mph 97 % 0.00 in
05:06 54.0 °F 53.2 °F 29.91 in WSW 0.3 mph 1.2 mph 97 % 0.00 in
05:11 53.9 °F 53.1 °F 29.90 in SW 1.0 mph 3.5 mph 97 % 0.00 in
05:16 53.8 °F 53.0 °F 29.90 in SW 1.7 mph 3.5 mph 97 % 0.00 in
05:21 53.6 °F 52.5 °F 29.90 in SW 0.1 mph 1.2 mph 96 % 0.00 in
05:26 53.4 °F 52.3 °F 29.90 in Calm   2.3 mph 96 % 0.00 in
05:31 53.2 °F 52.1 °F 29.89 in Calm     96 % 0.00 in
05:36 53.1 °F 52.0 °F 29.89 in Calm     96 % 0.00 in
05:42 52.8 °F 51.7 °F 29.89 in Calm     96 % 0.00 in
05:52 52.4 °F 51.0 °F 29.89 in Calm     95 % 0.00 in
05:57 52.2 °F 51.1 °F 29.89 in Calm     96 % 0.00 in
06:02 52.1 °F 50.7 °F 29.90 in SW 0.2 mph 1.2 mph 95 % 0.00 in
06:07 51.9 °F 50.5 °F 29.90 in SW 0.3 mph 1.2 mph 95 % 0.00 in
06:12 51.7 °F 50.3 °F 29.89 in SW 0.1 mph 1.2 mph 95 % 0.00 in
06:17 51.6 °F 50.2 °F 29.90 in SW 0.6 mph 2.3 mph 95 % 0.00 in
06:22 51.5 °F 50.4 °F 29.91 in SW 2.2 mph 3.5 mph 96 % 0.00 in
06:27 51.4 °F 50.3 °F 29.91 in Calm   1.2 mph 96 % 0.00 in
06:43 51.3 °F 50.2 °F 29.91 in Calm     96 % 0.00 in
06:48 51.1 °F 50.0 °F 29.92 in Calm     96 % 0.00 in
06:53 51.0 °F 49.9 °F 29.92 in Calm     96 % 0.00 in
06:58 50.9 °F 49.8 °F 29.92 in SW 0.1 mph 1.2 mph 96 % 0.00 in
07:03 50.7 °F 49.6 °F 29.92 in SW 0.3 mph 2.3 mph 96 % 0.00 in
07:08 50.6 °F 49.5 °F 29.91 in SW 0.3 mph 2.0 mph 96 % 0.00 in
07:13 50.6 °F 49.5 °F 29.91 in SW 1.2 mph 2.0 mph 96 % 0.00 in
07:18 50.5 °F 49.4 °F 29.91 in SW 0.6 mph 2.3 mph 96 % 0.00 in
07:24 50.5 °F 49.4 °F 29.91 in SW 0.4 mph 1.2 mph 96 % 0.00 in
07:29 50.6 °F 49.5 °F 29.91 in SW 0.9 mph 1.2 mph 96 % 0.00 in
07:34 50.7 °F 49.6 °F 29.91 in Calm   1.2 mph 96 % 0.00 in
07:39 50.9 °F 50.1 °F 29.91 in Calm   1.2 mph 97 % 0.00 in
07:44 51.0 °F 50.2 °F 29.91 in SW 0.5 mph 3.5 mph 97 % 0.00 in
07:49 51.1 °F 50.3 °F 29.91 in Calm   1.2 mph 97 % 0.00 in
07:54 51.3 °F 50.5 °F 29.91 in SW 0.1 mph 1.2 mph 97 % 0.00 in
07:59 51.4 °F 50.6 °F 29.90 in SW 0.2 mph 1.2 mph 97 % 0.00 in
08:04 51.6 °F 50.8 °F 29.90 in SSW 0.1 mph 1.2 mph 97 % 0.00 in
08:09 51.8 °F 51.0 °F 29.91 in SSW 1.6 mph 3.5 mph 97 % 0.00 in
08:20 52.0 °F 51.2 °F 29.91 in Calm     97 % 0.00 in
08:25 52.1 °F 51.3 °F 29.92 in Calm   2.0 mph 97 % 0.00 in
08:30 52.2 °F 51.4 °F 29.91 in Calm     97 % 0.00 in
08:35 52.3 °F 51.5 °F 29.93 in SSW 1.0 mph 2.0 mph 97 % 0.00 in
08:40 52.5 °F 51.7 °F 29.94 in SSW 2.0 mph 4.0 mph 97 % 0.00 in
08:45 52.6 °F 51.8 °F 29.94 in Calm   4.0 mph 97 % 0.00 in
08:50 52.6 °F 51.8 °F 29.92 in Calm     97 % 0.00 in
08:55 52.7 °F 52.2 °F 29.93 in Calm     98 % 0.00 in
09:00 52.8 °F 52.3 °F 29.93 in Calm     98 % 0.00 in
09:05 52.9 °F 52.4 °F 29.93 in Calm     98 % 0.00 in
09:10 53.0 °F 52.5 °F 29.93 in Calm     98 % 0.00 in
09:15 53.1 °F 52.6 °F 29.93 in Calm     98 % 0.00 in
09:20 53.2 °F 52.7 °F 29.92 in NNE 2.0 mph 4.6 mph 98 % 0.00 in
09:25 53.3 °F 52.8 °F 29.92 in NNE 2.2 mph 4.0 mph 98 % 0.00 in
09:30 53.3 °F 52.5 °F 29.91 in NE 3.4 mph 4.6 mph 97 % 0.00 in
09:36 53.3 °F 52.5 °F 29.92 in North 1.5 mph 3.5 mph 97 % 0.00 in
09:41 53.3 °F 52.5 °F 29.92 in Calm     97 % 0.00 in
09:46 53.3 °F 52.8 °F 29.91 in NNE 0.1 mph 1.2 mph 98 % 0.00 in
09:51 53.4 °F 52.8 °F 29.90 in NNE 1.4 mph 2.3 mph 98 % 0.00 in
09:56 53.4 °F 52.8 °F 29.89 in NNE 1.6 mph 3.5 mph 98 % 0.00 in
10:01 53.4 °F 52.8 °F 29.89 in NE 1.8 mph 3.5 mph 98 % 0.00 in
10:06 53.5 °F 52.9 °F 29.90 in Calm     98 % 0.00 in
10:11 53.5 °F 52.9 °F 29.90 in Calm   1.2 mph 98 % 0.00 in
10:16 53.6 °F 53.0 °F 29.90 in Calm     98 % 0.00 in
10:21 53.7 °F 53.1 °F 29.89 in ENE 0.7 mph 2.3 mph 98 % 0.00 in
10:26 53.8 °F 53.2 °F 29.89 in ENE 0.8 mph 2.3 mph 98 % 0.00 in
10:32 53.8 °F 53.2 °F 29.88 in ENE 1.5 mph 3.0 mph 98 % 0.00 in
10:37 53.7 °F 52.9 °F 29.88 in NE 2.1 mph 3.5 mph 97 % 0.00 in
10:42 53.5 °F 52.7 °F 29.87 in NE 2.7 mph 4.6 mph 97 % 0.00 in
10:47 53.4 °F 52.6 °F 29.87 in ENE 1.8 mph 4.0 mph 97 % 0.00 in
10:52 53.3 °F 52.5 °F 29.87 in ENE 1.9 mph 3.5 mph 97 % 0.00 in
10:57 53.2 °F 52.4 °F 29.86 in ENE 0.5 mph 2.3 mph 97 % 0.00 in
11:02 53.2 °F 52.4 °F 29.86 in ENE 1.2 mph 3.5 mph 97 % 0.00 in
11:07 53.1 °F 52.3 °F 29.85 in ENE 1.9 mph 3.0 mph 97 % 0.00 in
11:12 53.1 °F 52.3 °F 29.87 in Calm   1.2 mph 97 % 0.00 in
11:17 53.1 °F 52.3 °F 29.87 in Calm     97 % 0.00 in
11:28 53.1 °F 52.3 °F 29.87 in East 0.6 mph 3.5 mph 97 % 0.00 in
11:33 53.1 °F 52.3 °F 29.88 in Calm   1.2 mph 97 % 0.00 in
11:43 53.2 °F 52.4 °F 29.86 in ENE 2.0 mph 3.5 mph 97 % 0.00 in
11:48 53.2 °F 52.4 °F 29.86 in East 1.9 mph 4.6 mph 97 % 0.00 in
11:53 53.2 °F 52.4 °F 29.89 in East 0.1 mph 2.3 mph 97 % 0.00 in
11:58 53.2 °F 52.4 °F 29.90 in SE 0.4 mph 2.3 mph 97 % 0.00 in
12:03 53.1 °F 52.3 °F 29.89 in East 1.9 mph 3.5 mph 97 % 0.01 in
12:08 53.1 °F 52.3 °F 29.88 in East 1.6 mph 3.5 mph 97 % 0.01 in
12:19 53.0 °F 52.2 °F 29.87 in ENE 3.4 mph 5.8 mph 97 % 0.02 in
12:24 53.0 °F 52.2 °F 29.87 in ENE 1.0 mph 3.5 mph 97 % 0.02 in
12:29 52.9 °F 52.1 °F 29.87 in East 3.1 mph 5.8 mph 97 % 0.03 in
12:34 52.9 °F 52.1 °F 29.85 in East 4.9 mph 5.8 mph 97 % 0.04 in
12:39 52.8 °F 52.0 °F 29.84 in ENE 5.2 mph 8.1 mph 97 % 0.05 in
12:44 52.8 °F 52.0 °F 29.85 in ENE 3.9 mph 5.8 mph 97 % 0.06 in
12:49 52.8 °F 52.0 °F 29.86 in East 2.6 mph 5.0 mph 97 % 0.07 in
12:54 52.8 °F 52.0 °F 29.84 in East 5.9 mph 7.0 mph 97 % 0.07 in
12:59 52.8 °F 52.3 °F 29.83 in East 6.8 mph 8.1 mph 98 % 0.08 in
13:04 52.9 °F 52.4 °F 29.84 in ENE 5.3 mph 8.1 mph 98 % 0.07 in
13:09 52.9 °F 52.4 °F 29.84 in East 4.2 mph 6.9 mph 98 % 0.08 in
13:20 53.0 °F 52.5 °F 29.83 in East 5.4 mph 5.4 mph 98 % 0.09 in
13:25 53.1 °F 52.6 °F 29.83 in East 5.0 mph 7.0 mph 98 % 0.00 in
13:30 53.1 °F 52.6 °F 29.82 in East 5.3 mph 6.9 mph 98 % 0.09 in
13:35 53.1 °F 52.5 °F 29.83 in East 5.0 mph 6.0 mph 98 % 0.00 in
13:40 53.0 °F 52.5 °F 29.82 in East 5.0 mph 6.0 mph 98 % 0.00 in
13:45 53.0 °F 52.5 °F 29.81 in East 6.5 mph 7.0 mph 98 % 0.09 in
13:50 52.9 °F 52.4 °F 29.82 in East 5.0 mph 7.0 mph 98 % 0.00 in
13:55 52.9 °F 52.4 °F 29.81 in East 6.0 mph 7.0 mph 98 % 0.00 in
14:00 52.9 °F 52.4 °F 29.82 in East 6.0 mph 8.1 mph 98 % 0.07 in
14:05 52.9 °F 52.4 °F 29.82 in East 5.0 mph 8.0 mph 98 % 0.00 in
14:10 53.0 °F 52.4 °F 29.82 in East 5.0 mph 7.0 mph 98 % 0.00 in
14:15 53.0 °F 52.5 °F 29.82 in East 3.0 mph 7.0 mph 98 % 0.00 in
14:20 53.1 °F 52.5 °F 29.82 in East 3.0 mph 7.0 mph 98 % 0.00 in
14:25 53.1 °F 52.5 °F 29.80 in East 6.0 mph 7.0 mph 98 % 0.00 in
14:30 53.0 °F 52.5 °F 29.79 in East 7.0 mph 9.0 mph 98 % 0.01 in
14:35 53.0 °F 52.5 °F 29.80 in East 5.0 mph 9.0 mph 98 % 0.00 in
14:40 52.9 °F 52.4 °F 29.81 in East 5.0 mph 8.0 mph 98 % 0.00 in
14:45 52.9 °F 52.4 °F 29.81 in East 3.0 mph 6.0 mph 98 % 0.01 in
14:50 52.8 °F 52.3 °F 29.82 in ENE 5.0 mph 8.0 mph 98 % 0.00 in
14:55 52.8 °F 52.3 °F 29.83 in ENE 3.0 mph 8.0 mph 98 % 0.00 in
15:00 52.7 °F 52.2 °F 29.83 in ENE 2.8 mph 3.5 mph 98 % 0.10 in
15:05 52.7 °F 52.2 °F 29.82 in East 5.0 mph 8.0 mph 98 % 0.00 in
15:10 52.7 °F 52.2 °F 29.82 in East 8.0 mph 10.0 mph 98 % 0.00 in
15:15 52.7 °F 52.1 °F 29.81 in East 7.0 mph 10.0 mph 98 % 0.00 in
15:20 52.7 °F 52.2 °F 29.80 in East 7.0 mph 9.0 mph 98 % 0.00 in
15:25 52.7 °F 52.2 °F 29.80 in East 7.0 mph 9.0 mph 98 % 0.01 in
15:30 52.8 °F 52.3 °F 29.80 in East 6.0 mph 8.0 mph 98 % 0.00 in
15:35 52.7 °F 52.2 °F 29.79 in East 5.1 mph 8.1 mph 98 % 0.08 in
15:40 52.7 °F 52.2 °F 29.80 in ENE 5.0 mph 8.0 mph 98 % 0.00 in
15:45 52.7 °F 52.2 °F 29.81 in ENE 6.0 mph 10.0 mph 98 % 0.00 in
15:50 52.7 °F 52.2 °F 29.81 in NE 5.0 mph 8.0 mph 98 % 0.00 in
15:55 52.7 °F 52.2 °F 29.81 in NE 8.0 mph 14.0 mph 98 % 0.01 in
16:05 52.6 °F 52.1 °F 29.79 in East 8.0 mph 13.8 mph 98 % 0.25 in
16:10 52.6 °F 52.1 °F 29.79 in East 5.7 mph 9.2 mph 98 % 0.25 in
16:15 52.6 °F 52.1 °F 29.79 in NE 7.4 mph 10.4 mph 98 % 0.27 in
16:20 52.6 °F 52.1 °F 29.78 in East 9.4 mph 12.0 mph 98 % 0.28 in
16:25 52.5 °F 52.0 °F 29.78 in East 8.5 mph 11.5 mph 98 % 0.28 in
16:30 52.4 °F 51.9 °F 29.78 in ENE 7.8 mph 13.8 mph 98 % 0.28 in
16:35 52.5 °F 52.0 °F 29.78 in ENE 5.9 mph 8.1 mph 98 % 0.29 in
16:40 52.5 °F 52.0 °F 29.79 in ENE 3.4 mph 6.9 mph 98 % 0.29 in
16:45 52.5 °F 52.0 °F 29.79 in ENE 2.6 mph 6.9 mph 98 % 0.30 in
16:50 52.6 °F 52.1 °F 29.78 in ENE 9.6 mph 17.0 mph 98 % 0.30 in
16:56 52.6 °F 52.1 °F 29.78 in East 7.8 mph 11.5 mph 98 % 0.27 in
17:01 52.6 °F 52.1 °F 29.78 in ENE 7.1 mph 9.2 mph 98 % 0.17 in
17:06 52.6 °F 52.1 °F 29.78 in East 4.5 mph 5.8 mph 98 % 0.11 in
17:11 52.7 °F 52.2 °F 29.79 in East 5.4 mph 8.1 mph 98 % 0.10 in
17:16 52.7 °F 52.2 °F 29.77 in East 7.9 mph 11.5 mph 98 % 0.08 in
17:21 52.7 °F 52.2 °F 29.77 in East 8.3 mph 11.5 mph 98 % 0.07 in
17:26 52.7 °F 52.2 °F 29.77 in ENE 6.6 mph 10.0 mph 98 % 0.06 in
17:33 52.6 °F 52.1 °F 29.76 in East 8.7 mph 12.7 mph 98 % 0.06 in
17:38 52.6 °F 52.1 °F 29.77 in ENE 8.1 mph 9.2 mph 98 % 0.05 in
17:43 52.6 °F 52.1 °F 29.77 in ENE 6.9 mph 9.2 mph 98 % 0.05 in
17:49 52.6 °F 52.1 °F 29.77 in East 7.5 mph 9.2 mph 98 % 0.05 in
17:54 52.6 °F 52.1 °F 29.76 in East 7.4 mph 9.2 mph 98 % 0.04 in
17:56 52.6 °F 52.1 °F 29.77 in ENE 7.1 mph 9.2 mph 98 % 0.03 in
18:02 52.6 °F 52.1 °F 29.77 in ENE 7.4 mph 13.0 mph 98 % 0.02 in
18:07 52.5 °F 52.0 °F 29.78 in East 6.0 mph 7.0 mph 98 % 0.01 in
18:12 52.5 °F 52.0 °F 29.77 in East 8.2 mph 9.2 mph 98 % 0.01 in
18:17 52.4 °F 51.9 °F 29.77 in ENE 8.3 mph 11.5 mph 98 % 0.01 in
18:27 52.1 °F 51.6 °F 29.76 in NE 8.7 mph 13.8 mph 98 % 0.02 in
18:32 52.0 °F 51.5 °F 29.77 in NE 9.7 mph 12.7 mph 98 % 0.02 in
18:37 51.8 °F 51.3 °F 29.76 in East 8.8 mph 12.7 mph 98 % 0.02 in
18:42 51.8 °F 51.3 °F 29.76 in ENE 9.2 mph 12.0 mph 98 % 0.01 in
18:47 51.7 °F 51.2 °F 29.75 in East 9.1 mph 12.7 mph 98 % 0.01 in
18:52 51.5 °F 51.0 °F 29.76 in ENE 9.0 mph 11.5 mph 98 % 0.01 in
18:58 51.5 °F 51.0 °F 29.76 in East 8.6 mph 13.0 mph 98 % 0.01 in
19:01 51.4 °F 50.9 °F 29.76 in East 8.8 mph 16.0 mph 98 % 0.02 in
19:06 51.4 °F 50.9 °F 29.75 in East 10.2 mph 13.8 mph 98 % 0.02 in
19:11 51.3 °F 50.8 °F 29.74 in East 8.8 mph 16.1 mph 98 % 0.02 in
19:16 51.3 °F 50.8 °F 29.74 in ENE 11.1 mph 15.0 mph 98 % 0.02 in
19:21 51.3 °F 50.8 °F 29.74 in East 8.7 mph 11.5 mph 98 % 0.02 in
19:26 51.2 °F 50.7 °F 29.74 in ENE 8.3 mph 11.5 mph 98 % 0.01 in
19:31 51.2 °F 50.7 °F 29.74 in East 8.7 mph 11.0 mph 98 % 0.02 in
19:37 51.2 °F 50.7 °F 29.74 in East 8.5 mph 10.4 mph 98 % 0.02 in
19:42 51.2 °F 50.7 °F 29.74 in ENE 8.0 mph 10.4 mph 98 % 0.02 in
19:47 51.3 °F 50.8 °F 29.73 in ENE 7.5 mph 12.7 mph 98 % 0.02 in
19:52 51.3 °F 50.8 °F 29.72 in ENE 7.3 mph 11.5 mph 98 % 0.02 in
19:57 51.3 °F 50.8 °F 29.72 in ENE 7.5 mph 11.5 mph 98 % 0.03 in
20:02 51.3 °F 50.8 °F 29.71 in ENE 10.0 mph 13.8 mph 98 % 0.02 in
20:07 51.3 °F 50.8 °F 29.71 in East 9.9 mph 14.0 mph 98 % 0.02 in
20:12 51.3 °F 50.8 °F 29.71 in ENE 7.6 mph 9.2 mph 98 % 0.02 in
20:17 51.3 °F 50.8 °F 29.71 in ENE 8.2 mph 11.5 mph 98 % 0.02 in
20:22 51.3 °F 50.8 °F 29.71 in NE 7.0 mph 10.4 mph 98 % 0.02 in
20:28 51.3 °F 50.8 °F 29.70 in East 7.4 mph 12.0 mph 98 % 0.01 in
20:33 51.3 °F 50.8 °F 29.70 in ENE 8.2 mph 11.5 mph 98 % 0.01 in
20:38 51.3 °F 50.8 °F 29.69 in ENE 7.3 mph 11.5 mph 98 % 0.01 in
20:43 51.3 °F 50.8 °F 29.68 in ENE 8.6 mph 11.5 mph 98 % 0.01 in
20:48 51.4 °F 50.9 °F 29.68 in ENE 6.7 mph 9.2 mph 98 % 0.01 in
20:53 51.4 °F 50.9 °F 29.68 in ENE 7.1 mph 9.0 mph 98 % 0.01 in
20:58 51.4 °F 50.9 °F 29.67 in ENE 6.7 mph 9.2 mph 98 % 0.00 in
21:03 51.4 °F 50.9 °F 29.67 in NE 7.1 mph 11.5 mph 98 % 0.01 in
21:08 51.4 °F 50.9 °F 29.67 in East 6.5 mph 10.4 mph 98 % 0.01 in
21:13 51.4 °F 50.9 °F 29.67 in ENE 4.5 mph 7.0 mph 98 % 0.01 in
21:19 51.4 °F 50.9 °F 29.66 in ENE 6.6 mph 8.1 mph 98 % 0.01 in
21:24 51.4 °F 50.9 °F 29.67 in ENE 7.2 mph 8.1 mph 98 % 0.01 in
21:29 51.4 °F 50.9 °F 29.67 in East 6.0 mph 11.5 mph 98 % 0.01 in
21:34 51.4 °F 50.9 °F 29.66 in ENE 7.8 mph 11.5 mph 98 % 0.05 in
21:39 51.4 °F 50.9 °F 29.66 in ENE 6.5 mph 9.2 mph 98 % 0.05 in
21:44 51.4 °F 50.9 °F 29.65 in ENE 5.9 mph 10.0 mph 98 % 0.06 in
21:49 51.4 °F 50.9 °F 29.65 in ENE 7.2 mph 9.2 mph 98 % 0.06 in
21:54 51.4 °F 50.9 °F 29.64 in East 9.2 mph 13.0 mph 98 % 0.06 in
21:59 51.4 °F 50.9 °F 29.64 in ENE 11.3 mph 17.3 mph 98 % 0.06 in
22:04 51.4 °F 50.9 °F 29.63 in ENE 9.5 mph 12.7 mph 98 % 0.06 in
22:10 51.4 °F 50.9 °F 29.62 in ENE 12.2 mph 13.8 mph 98 % 0.06 in
22:15 51.4 °F 50.9 °F 29.62 in ENE 9.4 mph 12.7 mph 98 % 0.06 in
22:20 51.4 °F 51.1 °F 29.62 in ENE 9.0 mph 14.0 mph 99 % 0.00 in
22:25 51.5 °F 51.2 °F 29.62 in NE 8.9 mph 11.0 mph 99 % 0.06 in
22:30 51.5 °F 51.2 °F 29.61 in ENE 10.0 mph 14.0 mph 99 % 0.01 in
22:35 51.5 °F 51.2 °F 29.60 in ENE 8.0 mph 15.0 mph 99 % 0.00 in
22:40 51.5 °F 51.2 °F 29.61 in ENE 7.0 mph 12.0 mph 99 % 0.00 in
22:45 51.5 °F 51.2 °F 29.60 in ENE 7.0 mph 12.0 mph 99 % 0.00 in
22:50 51.5 °F 51.2 °F 29.59 in ENE 8.0 mph 12.0 mph 99 % 0.00 in
22:55 51.5 °F 51.2 °F 29.58 in ENE 8.0 mph 14.0 mph 99 % 0.00 in
23:00 51.5 °F 51.2 °F 29.58 in East 7.2 mph 12.7 mph 99 % 0.03 in
23:05 51.5 °F 51.2 °F 29.57 in ENE 7.6 mph 9.2 mph 99 % 0.03 in
23:10 51.5 °F 51.0 °F 29.57 in ENE 6.2 mph 9.2 mph 98 % 0.03 in
23:15 51.5 °F 51.2 °F 29.56 in ENE 7.1 mph 9.2 mph 99 % 0.03 in
23:20 51.5 °F 51.0 °F 29.57 in ENE 7.3 mph 8.1 mph 98 % 0.03 in
23:25 51.6 °F 51.1 °F 29.57 in East 6.1 mph 8.0 mph 98 % 0.03 in
23:30 51.6 °F 51.1 °F 29.56 in ENE 7.5 mph 10.0 mph 98 % 0.02 in
23:35 51.6 °F 51.1 °F 29.56 in East 4.9 mph 8.1 mph 98 % 0.02 in
23:41 51.6 °F 51.1 °F 29.55 in ENE 6.4 mph 9.2 mph 98 % 0.02 in
23:46 51.6 °F 51.1 °F 29.55 in East 4.9 mph 8.1 mph 98 % 0.02 in
23:51 51.7 °F 51.2 °F 29.54 in East 5.2 mph 6.9 mph 98 % 0.02 in
23:56 51.8 °F 51.3 °F 29.54 in East 2.3 mph 3.5 mph 98 % 0.02 in
Crab Meadow Weather
Compliments of Weather Underground - 3 mb

Script developed by  Jim McMurry - jmcmurry@mwt.net Adapted for the template by  Wim van der Kuil - Leuven-Template.eu

Astronomy: The gravity on Jupiter is 2.6 times that of the Earth.